Portada
METAR-TAF:

METAR-TAF

Aeroports :

La Ceiba, Hondures

latitud: 15-44N, longitud: 086-52W, altitud: 3 m

Observació

L'informe es va fer fa 48 minuts, a les 02:00 UTC
Vent 2 kt amb direcció variable
Temperatura 27°C
Humitat 84%
Pressió 1011 hPa
Visibilitat 10 km o més
sense núvols per sota de 1500 mi sense presència de cumulonimbus.

METAR: MHLC 210200Z VRB02KT CAVOK 27/24 Q1011 A2986 NOSIG

Hora: 20:48 (02:48 UTC)

Pronòstic

L'informe es va fer fa 4 hores i 38 minuts, a les 22:10 UTC
Pronòstic vàlid del 21 a les 00 UTC al 21 a les 24 UTC
Vent 12 kt del Nord-Est
Visibilitat 10 km o més
Núvols disperses a una alçada de 3200 ft
Evolucionant progressivament
l' 21 a les 08 UTC al 21 a les 10 UTC
Vent 3 kt del Sud

TAF: MHLC 202210Z 2100/2124 04012KT 9999 SCT032 TX32/2119Z TN23/2112Z BECMG 2108/2110 19003KT

Observacions i pronòstics meteorològics de més de 4000 aeroports (METAR i TAF).

Les estacions disponibles són els punts grocs i vermells al mapa.

Posi el ratolí al punt desitjat per veure el nom de l'estació.

Feu clic per veure les observacions i els pronòstics meteorològics.

Per canviar el mapa: feu clic els botons verds amb una creu de color negre per apropar; al botó verd amb un guió per allunyar la imatge; o en les fletxes verdes per a mapes adjacents.


METAR-TAF: